This is the latest recevied weather packets stored in our database for station/object HK6RM-19. If no packets are shown the sender has not sent any weather packets the latest 10 day(s).
| Time | Temp. | Humidity | Pressure | Rain* | Wind** | Luminosity | Snow |
|---|---|---|---|---|---|---|---|
| 1777659517 | 20° C | 73% | 1011 hPa | 0 mm | - | - | - |
| 1777658677 | 20° C | 72% | 1011 hPa | 0 mm | - | - | - |
| 1777657836 | 20° C | 72% | 1011 hPa | 0 mm | - | - | - |
| 1777656994 | 20° C | 72% | 1011 hPa | 0 mm | - | - | - |
| 1777656154 | 20° C | 72% | 1012 hPa | 0 mm | - | - | - |
| 1777655313 | 20.56° C | 72% | 1012 hPa | 0 mm | - | - | - |
| 1777654471 | 20.56° C | 72% | 1012 hPa | 0 mm | - | - | - |
| 1777653631 | 20.56° C | 73% | 1012 hPa | 0 mm | - | - | - |
| 1777652790 | 20.56° C | 73% | 1013 hPa | 0 mm | - | - | - |
| 1777651945 | 20.56° C | 73% | 1013 hPa | 0 mm | - | - | - |
| 1777651105 | 20.56° C | 73% | 1013 hPa | 0 mm | - | - | - |
| 1777650264 | 20.56° C | 73% | 1013 hPa | 0 mm | - | - | - |
| 1777649423 | 19.44° C | 67% | 1013 hPa | 0 mm | - | - | - |
| 1777647742 | 19.44° C | 66% | 1014 hPa | 0 mm | - | - | - |
| 1777646900 | 19.44° C | 65% | 1014 hPa | 0 mm | - | - | - |
| 1777646059 | 18.89° C | 63% | 1014 hPa | 0 mm | - | - | - |
| 1777645217 | 18.89° C | 63% | 1015 hPa | 0 mm | - | - | - |
| 1777644376 | 18.89° C | 63% | 1014 hPa | 0 mm | - | - | - |
| 1777643535 | 19.44° C | 63% | 1014 hPa | 0 mm | - | - | - |
| 1777642693 | 16.11° C | 77% | 1014 hPa | 0 mm | - | - | - |
| 1777641852 | 16.11° C | 77% | 1015 hPa | 0 mm | - | - | - |
| 1777641011 | 16.11° C | 77% | 1015 hPa | 0 mm | - | - | - |
| 1777640171 | 16.11° C | 77% | 1015 hPa | 0 mm | - | - | - |
| 1777639330 | 14.44° C | 78% | 1015 hPa | 0 mm | - | - | - |
| 1777638489 | 14.44° C | 78% | 1015 hPa | 0 mm | - | - | - |
* Rain latest hour (hover to see other rain measurements)
** Current wind speed in m/s (hover to see current wind gust speed)